Aviation Digital Data Service (ADDS)

Output produced by TAFs form (0905 UTC 30 May 2017)
found at http://www.aviationweather.gov/adds/tafs/
 
METAR text: RJKA 300800Z 15006KT 9999 FEW020 SCT030 25/20 Q1009
Conditions at: RJKA (AMAMI AIRPORT , JP) observed 0800 UTC 30 May 2017
Temperature: 25.0°C (77°F)
Dewpoint: 20.0°C (68°F) [RH = 74%]
Pressure (altimeter): 29.79 inches Hg (1009.0 mb)
Winds: from the SSE (150 degrees) at 7 MPH (6 knots; 3.1 m/s)
Visibility: 6 or more miles (10+ km)
Ceiling: at least 12,000 feet AGL
Clouds: few clouds at 2000 feet AGL
scattered clouds at 3000 feet AGL
Weather: no significant weather observed at this time